sensor_id;sensor_type;location;lat;lon;timestamp;temperature;humidity
64939;DHT22;51453;47.738;7.420;2022-12-24T00:00:07;11.40;99.90
64939;DHT22;51453;47.738;7.420;2022-12-24T00:02:33;11.40;99.90
64939;DHT22;51453;47.738;7.420;2022-12-24T00:04:58;11.50;99.90
64939;DHT22;51453;47.738;7.420;2022-12-24T00:07:24;11.60;99.90
64939;DHT22;51453;47.738;7.420;2022-12-24T00:09:50;11.50;99.90
64939;DHT22;51453;47.738;7.420;2022-12-24T00:12:15;11.50;99.90
64939;DHT22;51453;47.738;7.420;2022-12-24T00:14:41;11.50;99.90
64939;DHT22;51453;47.738;7.420;2022-12-24T00:17:07;11.60;99.90
64939;DHT22;51453;47.738;7.420;2022-12-24T00:19:32;11.60;99.90
64939;DHT22;51453;47.738;7.420;2022-12-24T00:21:58;11.60;99.90
64939;DHT22;51453;47.738;7.420;2022-12-24T00:24:24;11.70;99.90
64939;DHT22;51453;47.738;7.420;2022-12-24T00:26:49;11.80;99.90
64939;DHT22;51453;47.738;7.420;2022-12-24T00:29:15;11.80;99.90
64939;DHT22;51453;47.738;7.420;2022-12-24T00:31:40;11.80;99.90
64939;DHT22;51453;47.738;7.420;2022-12-24T00:34:06;11.80;99.90
64939;DHT22;51453;47.738;7.420;2022-12-24T00:36:33;11.80;99.90
64939;DHT22;51453;47.738;7.420;2022-12-24T00:38:59;11.70;99.90
64939;DHT22;51453;47.738;7.420;2022-12-24T00:41:25;11.60;99.90
64939;DHT22;51453;47.738;7.420;2022-12-24T00:44:00;11.50;99.90
64939;DHT22;51453;47.738;7.420;2022-12-24T00:46:28;11.40;99.90
64939;DHT22;51453;47.738;7.420;2022-12-24T00:48:55;11.40;99.90
64939;DHT22;51453;47.738;7.420;2022-12-24T00:51:22;11.40;99.90
64939;DHT22;51453;47.738;7.420;2022-12-24T00:53:48;11.50;99.90
64939;DHT22;51453;47.738;7.420;2022-12-24T00:56:15;11.50;99.90
64939;DHT22;51453;47.738;7.420;2022-12-24T00:58:40;11.50;99.90
64939;DHT22;51453;47.738;7.420;2022-12-24T01:01:06;11.60;99.90
64939;DHT22;51453;47.738;7.420;2022-12-24T01:03:32;11.90;99.90
64939;DHT22;51453;47.738;7.420;2022-12-24T01:06:15;11.90;99.90
64939;DHT22;51453;47.738;7.420;2022-12-24T01:08:42;11.90;99.90
64939;DHT22;51453;47.738;7.420;2022-12-24T01:11:09;11.80;99.90
64939;DHT22;51453;47.738;7.420;2022-12-24T01:13:35;11.70;99.90
64939;DHT22;51453;47.738;7.420;2022-12-24T01:16:16;11.70;99.90
64939;DHT22;51453;47.738;7.420;2022-12-24T01:18:42;11.60;99.90
64939;DHT22;51453;47.738;7.420;2022-12-24T01:21:07;11.60;99.90
64939;DHT22;51453;47.738;7.420;2022-12-24T01:23:33;11.60;99.90
64939;DHT22;51453;47.738;7.420;2022-12-24T01:26:00;11.50;99.90
64939;DHT22;51453;47.738;7.420;2022-12-24T01:28:26;11.50;99.90
64939;DHT22;51453;47.738;7.420;2022-12-24T01:30:52;11.50;99.90
64939;DHT22;51453;47.738;7.420;2022-12-24T01:33:17;11.60;99.90
64939;DHT22;51453;47.738;7.420;2022-12-24T01:35:43;11.70;99.90
64939;DHT22;51453;47.738;7.420;2022-12-24T01:38:10;11.70;99.90
64939;DHT22;51453;47.738;7.420;2022-12-24T01:40:40;11.70;99.90
64939;DHT22;51453;47.738;7.420;2022-12-24T01:43:26;11.70;99.90
64939;DHT22;51453;47.738;7.420;2022-12-24T01:46:02;11.60;99.90
64939;DHT22;51453;47.738;7.420;2022-12-24T01:48:51;11.70;99.90
64939;DHT22;51453;47.738;7.420;2022-12-24T01:51:25;11.60;99.90
64939;DHT22;51453;47.738;7.420;2022-12-24T01:53:57;11.60;99.90
64939;DHT22;51453;47.738;7.420;2022-12-24T01:56:24;11.60;99.90
64939;DHT22;51453;47.738;7.420;2022-12-24T01:58:54;11.50;99.90
64939;DHT22;51453;47.738;7.420;2022-12-24T02:01:22;11.30;99.90
64939;DHT22;51453;47.738;7.420;2022-12-24T02:03:48;11.20;99.90
64939;DHT22;51453;47.738;7.420;2022-12-24T02:06:17;11.20;99.90
64939;DHT22;51453;47.738;7.420;2022-12-24T02:08:43;11.20;99.90
64939;DHT22;51453;47.738;7.420;2022-12-24T02:11:19;11.20;99.90
64939;DHT22;51453;47.738;7.420;2022-12-24T02:13:52;11.20;99.90
64939;DHT22;51453;47.738;7.420;2022-12-24T02:31:08;11.30;99.90
64939;DHT22;51453;47.738;7.420;2022-12-24T02:33:53;11.30;99.90
64939;DHT22;51453;47.738;7.420;2022-12-24T02:39:03;11.30;99.90
64939;DHT22;51453;47.738;7.420;2022-12-24T02:41:37;11.30;99.90
64939;DHT22;51453;47.738;7.420;2022-12-24T02:44:26;11.30;99.90
64939;DHT22;51453;47.738;7.420;2022-12-24T02:46:54;11.30;99.90
64939;DHT22;51453;47.738;7.420;2022-12-24T02:49:21;11.40;99.90
64939;DHT22;51453;47.738;7.420;2022-12-24T02:51:46;11.40;99.90
64939;DHT22;51453;47.738;7.420;2022-12-24T02:54:13;11.30;99.90
64939;DHT22;51453;47.738;7.420;2022-12-24T02:59:40;11.50;99.90
64939;DHT22;51453;47.738;7.420;2022-12-24T03:13:16;11.50;99.90
64939;DHT22;51453;47.738;7.420;2022-12-24T03:15:42;11.40;99.90
64939;DHT22;51453;47.738;7.420;2022-12-24T03:18:11;11.30;99.90
64939;DHT22;51453;47.738;7.420;2022-12-24T03:20:46;11.30;99.90
64939;DHT22;51453;47.738;7.420;2022-12-24T03:23:13;11.30;99.90
64939;DHT22;51453;47.738;7.420;2022-12-24T03:25:41;11.30;99.90
64939;DHT22;51453;47.738;7.420;2022-12-24T03:28:10;11.30;99.90
64939;DHT22;51453;47.738;7.420;2022-12-24T03:30:44;11.30;99.90
64939;DHT22;51453;47.738;7.420;2022-12-24T03:33:11;11.30;99.90
64939;DHT22;51453;47.738;7.420;2022-12-24T03:35:37;11.20;99.90
64939;DHT22;51453;47.738;7.420;2022-12-24T03:38:03;11.20;99.90
64939;DHT22;51453;47.738;7.420;2022-12-24T03:40:28;11.30;99.90
64939;DHT22;51453;47.738;7.420;2022-12-24T03:42:54;11.30;99.90
64939;DHT22;51453;47.738;7.420;2022-12-24T03:45:20;11.20;99.90
64939;DHT22;51453;47.738;7.420;2022-12-24T03:47:46;11.30;99.90
64939;DHT22;51453;47.738;7.420;2022-12-24T03:50:11;11.30;99.90
64939;DHT22;51453;47.738;7.420;2022-12-24T03:52:37;11.30;99.90
64939;DHT22;51453;47.738;7.420;2022-12-24T03:55:03;11.20;99.90
64939;DHT22;51453;47.738;7.420;2022-12-24T03:57:28;11.10;99.90
64939;DHT22;51453;47.738;7.420;2022-12-24T03:59:54;11.10;99.90
64939;DHT22;51453;47.738;7.420;2022-12-24T04:02:20;11.10;99.90
64939;DHT22;51453;47.738;7.420;2022-12-24T04:04:45;11.00;99.90
64939;DHT22;51453;47.738;7.420;2022-12-24T04:07:11;11.00;99.90
64939;DHT22;51453;47.738;7.420;2022-12-24T04:09:37;10.90;99.90
64939;DHT22;51453;47.738;7.420;2022-12-24T04:12:03;10.90;99.90
64939;DHT22;51453;47.738;7.420;2022-12-24T04:14:29;10.90;99.90
64939;DHT22;51453;47.738;7.420;2022-12-24T04:16:55;10.80;99.90
64939;DHT22;51453;47.738;7.420;2022-12-24T04:19:20;10.80;99.90
64939;DHT22;51453;47.738;7.420;2022-12-24T04:21:46;10.80;99.90
64939;DHT22;51453;47.738;7.420;2022-12-24T04:24:14;10.90;99.90
64939;DHT22;51453;47.738;7.420;2022-12-24T04:26:40;11.00;99.90
64939;DHT22;51453;47.738;7.420;2022-12-24T04:29:06;11.00;99.90
64939;DHT22;51453;47.738;7.420;2022-12-24T04:31:31;11.10;99.90
64939;DHT22;51453;47.738;7.420;2022-12-24T04:33:57;11.10;99.90
64939;DHT22;51453;47.738;7.420;2022-12-24T04:36:23;11.10;99.90
64939;DHT22;51453;47.738;7.420;2022-12-24T04:38:48;11.10;99.90
64939;DHT22;51453;47.738;7.420;2022-12-24T04:41:19;11.00;99.90
64939;DHT22;51453;47.738;7.420;2022-12-24T04:43:46;11.00;99.90
64939;DHT22;51453;47.738;7.420;2022-12-24T04:46:15;11.00;99.90
64939;DHT22;51453;47.738;7.420;2022-12-24T04:48:43;11.00;99.90
64939;DHT22;51453;47.738;7.420;2022-12-24T04:51:10;11.00;99.90
64939;DHT22;51453;47.738;7.420;2022-12-24T04:53:37;11.00;99.90
64939;DHT22;51453;47.738;7.420;2022-12-24T04:56:03;11.00;99.90
64939;DHT22;51453;47.738;7.420;2022-12-24T04:58:32;10.90;99.90
64939;DHT22;51453;47.738;7.420;2022-12-24T05:01:03;11.00;99.90
64939;DHT22;51453;47.738;7.420;2022-12-24T05:03:29;10.90;99.90
64939;DHT22;51453;47.738;7.420;2022-12-24T05:06:06;10.90;99.90
64939;DHT22;51453;47.738;7.420;2022-12-24T05:08:32;10.80;99.90
64939;DHT22;51453;47.738;7.420;2022-12-24T05:10:59;10.90;99.90
64939;DHT22;51453;47.738;7.420;2022-12-24T05:13:26;10.80;99.90
64939;DHT22;51453;47.738;7.420;2022-12-24T05:15:52;10.80;99.90
64939;DHT22;51453;47.738;7.420;2022-12-24T05:18:18;10.80;99.90
64939;DHT22;51453;47.738;7.420;2022-12-24T05:20:44;10.70;99.90
64939;DHT22;51453;47.738;7.420;2022-12-24T05:23:15;10.70;99.90
64939;DHT22;51453;47.738;7.420;2022-12-24T05:26:00;10.70;99.90
64939;DHT22;51453;47.738;7.420;2022-12-24T05:28:44;10.60;99.90
64939;DHT22;51453;47.738;7.420;2022-12-24T05:31:10;10.60;99.90
64939;DHT22;51453;47.738;7.420;2022-12-24T05:33:36;10.60;99.90
64939;DHT22;51453;47.738;7.420;2022-12-24T05:36:01;10.70;99.90
64939;DHT22;51453;47.738;7.420;2022-12-24T05:38:27;10.90;99.90
64939;DHT22;51453;47.738;7.420;2022-12-24T05:40:52;10.90;99.90
64939;DHT22;51453;47.738;7.420;2022-12-24T05:43:18;10.90;99.90
64939;DHT22;51453;47.738;7.420;2022-12-24T05:45:44;10.90;99.90
64939;DHT22;51453;47.738;7.420;2022-12-24T05:48:09;10.80;99.90
64939;DHT22;51453;47.738;7.420;2022-12-24T05:50:35;10.90;99.90
64939;DHT22;51453;47.738;7.420;2022-12-24T05:53:03;10.90;99.90
64939;DHT22;51453;47.738;7.420;2022-12-24T05:55:28;10.90;99.90
64939;DHT22;51453;47.738;7.420;2022-12-24T05:57:54;10.90;99.90
64939;DHT22;51453;47.738;7.420;2022-12-24T06:00:20;11.00;99.90
64939;DHT22;51453;47.738;7.420;2022-12-24T06:02:45;10.90;99.90
64939;DHT22;51453;47.738;7.420;2022-12-24T06:05:11;10.90;99.90
64939;DHT22;51453;47.738;7.420;2022-12-24T06:07:37;10.90;99.90
64939;DHT22;51453;47.738;7.420;2022-12-24T06:10:03;10.90;99.90
64939;DHT22;51453;47.738;7.420;2022-12-24T06:12:29;11.00;99.90
64939;DHT22;51453;47.738;7.420;2022-12-24T06:14:54;10.90;99.90
64939;DHT22;51453;47.738;7.420;2022-12-24T06:17:20;11.00;99.90
64939;DHT22;51453;47.738;7.420;2022-12-24T06:19:46;11.00;99.90
64939;DHT22;51453;47.738;7.420;2022-12-24T06:22:11;10.90;99.90
64939;DHT22;51453;47.738;7.420;2022-12-24T06:24:37;10.90;99.90
64939;DHT22;51453;47.738;7.420;2022-12-24T06:27:02;10.90;99.90
64939;DHT22;51453;47.738;7.420;2022-12-24T06:29:28;10.90;99.90
64939;DHT22;51453;47.738;7.420;2022-12-24T06:31:54;10.90;99.90
64939;DHT22;51453;47.738;7.420;2022-12-24T06:34:20;10.90;99.90
64939;DHT22;51453;47.738;7.420;2022-12-24T06:36:46;10.80;99.90
64939;DHT22;51453;47.738;7.420;2022-12-24T06:39:11;10.90;99.90
64939;DHT22;51453;47.738;7.420;2022-12-24T06:41:37;10.90;99.90
64939;DHT22;51453;47.738;7.420;2022-12-24T06:44:03;10.90;99.90
64939;DHT22;51453;47.738;7.420;2022-12-24T06:46:28;10.90;99.90
64939;DHT22;51453;47.738;7.420;2022-12-24T06:48:54;10.90;99.90
64939;DHT22;51453;47.738;7.420;2022-12-24T06:51:20;10.90;99.90
64939;DHT22;51453;47.738;7.420;2022-12-24T06:53:47;10.90;99.90
64939;DHT22;51453;47.738;7.420;2022-12-24T06:56:15;10.90;99.90
64939;DHT22;51453;47.738;7.420;2022-12-24T06:58:42;10.90;99.90
64939;DHT22;51453;47.738;7.420;2022-12-24T07:01:10;10.90;99.90
64939;DHT22;51453;47.738;7.420;2022-12-24T07:03:35;10.90;99.90
64939;DHT22;51453;47.738;7.420;2022-12-24T07:06:01;10.90;99.90
64939;DHT22;51453;47.738;7.420;2022-12-24T07:08:27;11.00;99.90
64939;DHT22;51453;47.738;7.420;2022-12-24T07:10:53;10.90;99.90
64939;DHT22;51453;47.738;7.420;2022-12-24T07:13:19;11.00;99.90
64939;DHT22;51453;47.738;7.420;2022-12-24T07:15:44;11.00;99.90
64939;DHT22;51453;47.738;7.420;2022-12-24T07:18:11;11.00;99.90
64939;DHT22;51453;47.738;7.420;2022-12-24T07:20:37;11.00;99.90
64939;DHT22;51453;47.738;7.420;2022-12-24T07:23:03;11.00;99.90
64939;DHT22;51453;47.738;7.420;2022-12-24T07:25:29;11.10;99.90
64939;DHT22;51453;47.738;7.420;2022-12-24T07:27:54;11.00;99.90
64939;DHT22;51453;47.738;7.420;2022-12-24T07:30:20;11.10;99.90
64939;DHT22;51453;47.738;7.420;2022-12-24T07:32:45;11.10;99.90
64939;DHT22;51453;47.738;7.420;2022-12-24T07:35:11;11.10;99.90
64939;DHT22;51453;47.738;7.420;2022-12-24T07:37:37;11.00;99.90
64939;DHT22;51453;47.738;7.420;2022-12-24T07:40:03;11.00;99.90
64939;DHT22;51453;47.738;7.420;2022-12-24T07:42:32;10.90;99.90
64939;DHT22;51453;47.738;7.420;2022-12-24T07:44:58;11.00;99.90
64939;DHT22;51453;47.738;7.420;2022-12-24T07:47:24;11.00;99.90
64939;DHT22;51453;47.738;7.420;2022-12-24T07:49:50;10.90;99.90
64939;DHT22;51453;47.738;7.420;2022-12-24T07:52:15;10.90;99.90
64939;DHT22;51453;47.738;7.420;2022-12-24T07:54:41;10.90;99.90
64939;DHT22;51453;47.738;7.420;2022-12-24T07:57:07;10.90;99.90
64939;DHT22;51453;47.738;7.420;2022-12-24T07:59:32;10.80;99.90
64939;DHT22;51453;47.738;7.420;2022-12-24T08:01:58;10.80;99.90
64939;DHT22;51453;47.738;7.420;2022-12-24T08:04:23;10.80;99.90
64939;DHT22;51453;47.738;7.420;2022-12-24T08:06:49;10.80;99.90
64939;DHT22;51453;47.738;7.420;2022-12-24T08:09:15;10.80;99.90
64939;DHT22;51453;47.738;7.420;2022-12-24T08:11:41;10.80;99.90
64939;DHT22;51453;47.738;7.420;2022-12-24T08:14:07;10.80;99.90
64939;DHT22;51453;47.738;7.420;2022-12-24T08:16:33;10.80;99.90
64939;DHT22;51453;47.738;7.420;2022-12-24T08:18:58;10.80;99.90
64939;DHT22;51453;47.738;7.420;2022-12-24T08:21:24;10.80;99.90
64939;DHT22;51453;47.738;7.420;2022-12-24T08:23:50;10.90;99.90
64939;DHT22;51453;47.738;7.420;2022-12-24T08:26:15;10.90;99.90
64939;DHT22;51453;47.738;7.420;2022-12-24T08:28:41;10.90;99.90
64939;DHT22;51453;47.738;7.420;2022-12-24T08:31:07;10.90;99.90
64939;DHT22;51453;47.738;7.420;2022-12-24T08:33:33;10.90;99.90
64939;DHT22;51453;47.738;7.420;2022-12-24T08:36:00;10.90;99.90
64939;DHT22;51453;47.738;7.420;2022-12-24T08:38:25;10.90;99.90
64939;DHT22;51453;47.738;7.420;2022-12-24T08:40:53;10.90;99.90
64939;DHT22;51453;47.738;7.420;2022-12-24T08:43:19;10.90;99.90
64939;DHT22;51453;47.738;7.420;2022-12-24T08:45:46;10.90;99.90
64939;DHT22;51453;47.738;7.420;2022-12-24T08:48:13;10.90;99.90
64939;DHT22;51453;47.738;7.420;2022-12-24T08:50:40;10.90;99.90
64939;DHT22;51453;47.738;7.420;2022-12-24T08:53:07;11.00;99.90
64939;DHT22;51453;47.738;7.420;2022-12-24T08:55:33;11.00;99.90
64939;DHT22;51453;47.738;7.420;2022-12-24T08:57:59;11.00;99.90
64939;DHT22;51453;47.738;7.420;2022-12-24T09:00:25;11.10;99.90
64939;DHT22;51453;47.738;7.420;2022-12-24T09:02:51;11.20;99.90
64939;DHT22;51453;47.738;7.420;2022-12-24T09:05:17;11.30;99.90
64939;DHT22;51453;47.738;7.420;2022-12-24T09:07:43;11.30;99.90
64939;DHT22;51453;47.738;7.420;2022-12-24T09:10:09;11.30;99.90
64939;DHT22;51453;47.738;7.420;2022-12-24T09:12:35;11.40;99.90
64939;DHT22;51453;47.738;7.420;2022-12-24T09:15:02;11.40;99.90
64939;DHT22;51453;47.738;7.420;2022-12-24T09:17:28;11.50;99.90
64939;DHT22;51453;47.738;7.420;2022-12-24T09:19:54;11.60;99.90
64939;DHT22;51453;47.738;7.420;2022-12-24T09:22:20;11.60;99.90
64939;DHT22;51453;47.738;7.420;2022-12-24T09:24:46;11.70;99.90
64939;DHT22;51453;47.738;7.420;2022-12-24T09:27:11;11.80;99.90
64939;DHT22;51453;47.738;7.420;2022-12-24T09:29:37;11.90;99.90
64939;DHT22;51453;47.738;7.420;2022-12-24T09:32:06;11.90;99.90
64939;DHT22;51453;47.738;7.420;2022-12-24T09:34:32;11.90;99.90
64939;DHT22;51453;47.738;7.420;2022-12-24T09:36:58;12.00;99.90
64939;DHT22;51453;47.738;7.420;2022-12-24T09:39:26;12.10;99.90
64939;DHT22;51453;47.738;7.420;2022-12-24T09:42:26;12.10;99.90
64939;DHT22;51453;47.738;7.420;2022-12-24T09:45:12;12.20;99.90
64939;DHT22;51453;47.738;7.420;2022-12-24T09:47:51;12.10;99.90
64939;DHT22;51453;47.738;7.420;2022-12-24T09:52:57;12.20;99.90
64939;DHT22;51453;47.738;7.420;2022-12-24T09:55:32;12.30;99.90
64939;DHT22;51453;47.738;7.420;2022-12-24T09:58:00;12.20;99.90
64939;DHT22;51453;47.738;7.420;2022-12-24T10:00:34;12.20;99.90
64939;DHT22;51453;47.738;7.420;2022-12-24T10:03:00;12.20;99.90
64939;DHT22;51453;47.738;7.420;2022-12-24T10:05:42;12.20;99.90
64939;DHT22;51453;47.738;7.420;2022-12-24T10:19:24;12.40;99.90
64939;DHT22;51453;47.738;7.420;2022-12-24T10:24:39;12.60;99.90
64939;DHT22;51453;47.738;7.420;2022-12-24T10:27:14;12.60;99.90
64939;DHT22;51453;47.738;7.420;2022-12-24T10:29:44;12.70;99.90
64939;DHT22;51453;47.738;7.420;2022-12-24T10:32:28;12.70;99.90
64939;DHT22;51453;47.738;7.420;2022-12-24T10:34:59;12.80;99.90
64939;DHT22;51453;47.738;7.420;2022-12-24T10:37:28;12.80;99.90
64939;DHT22;51453;47.738;7.420;2022-12-24T10:39:58;12.80;99.90
64939;DHT22;51453;47.738;7.420;2022-12-24T10:42:30;12.80;99.90
64939;DHT22;51453;47.738;7.420;2022-12-24T10:45:02;12.80;99.90
64939;DHT22;51453;47.738;7.420;2022-12-24T10:47:32;12.90;99.90
64939;DHT22;51453;47.738;7.420;2022-12-24T10:50:21;12.90;99.90
64939;DHT22;51453;47.738;7.420;2022-12-24T10:52:50;12.80;99.90
64939;DHT22;51453;47.738;7.420;2022-12-24T10:57:44;12.70;99.90
64939;DHT22;51453;47.738;7.420;2022-12-24T11:00:19;12.70;99.90
64939;DHT22;51453;47.738;7.420;2022-12-24T11:02:47;12.80;99.90
64939;DHT22;51453;47.738;7.420;2022-12-24T11:05:34;12.80;99.90
64939;DHT22;51453;47.738;7.420;2022-12-24T11:08:02;12.80;99.90
64939;DHT22;51453;47.738;7.420;2022-12-24T11:10:28;12.80;99.90
64939;DHT22;51453;47.738;7.420;2022-12-24T11:12:55;12.80;99.90
64939;DHT22;51453;47.738;7.420;2022-12-24T11:15:30;12.80;99.90
64939;DHT22;51453;47.738;7.420;2022-12-24T11:18:03;12.90;99.90
64939;DHT22;51453;47.738;7.420;2022-12-24T11:20:32;12.90;99.90
64939;DHT22;51453;47.738;7.420;2022-12-24T11:22:59;12.80;99.90
64939;DHT22;51453;47.738;7.420;2022-12-24T11:25:28;12.80;99.90
64939;DHT22;51453;47.738;7.420;2022-12-24T11:28:09;12.70;99.90
64939;DHT22;51453;47.738;7.420;2022-12-24T11:30:35;12.80;99.90
64939;DHT22;51453;47.738;7.420;2022-12-24T11:35:46;12.90;99.90
64939;DHT22;51453;47.738;7.420;2022-12-24T11:38:37;12.90;99.90
64939;DHT22;51453;47.738;7.420;2022-12-24T11:41:09;12.90;99.90
64939;DHT22;51453;47.738;7.420;2022-12-24T11:43:59;13.00;99.90
64939;DHT22;51453;47.738;7.420;2022-12-24T11:51:35;12.90;99.90
64939;DHT22;51453;47.738;7.420;2022-12-24T11:54:23;12.90;99.90
64939;DHT22;51453;47.738;7.420;2022-12-24T11:56:55;12.70;99.90
64939;DHT22;51453;47.738;7.420;2022-12-24T12:02:01;12.50;99.90
64939;DHT22;51453;47.738;7.420;2022-12-24T12:04:35;12.50;99.90
64939;DHT22;51453;47.738;7.420;2022-12-24T12:07:24;12.50;99.90
64939;DHT22;51453;47.738;7.420;2022-12-24T12:10:18;12.50;99.90
64939;DHT22;51453;47.738;7.420;2022-12-24T12:12:57;12.30;99.90
64939;DHT22;51453;47.738;7.420;2022-12-24T12:15:28;12.20;99.90
64939;DHT22;51453;47.738;7.420;2022-12-24T12:18:12;12.20;99.90
64939;DHT22;51453;47.738;7.420;2022-12-24T12:20:48;12.20;99.90
64939;DHT22;51453;47.738;7.420;2022-12-24T12:28:39;12.20;99.90
64939;DHT22;51453;47.738;7.420;2022-12-24T12:33:55;12.20;99.90
64939;DHT22;51453;47.738;7.420;2022-12-24T12:36:30;12.20;99.90
64939;DHT22;51453;47.738;7.420;2022-12-24T12:38:57;12.20;99.90
64939;DHT22;51453;47.738;7.420;2022-12-24T12:55:50;12.20;99.90
64939;DHT22;51453;47.738;7.420;2022-12-24T12:57:49;12.30;99.90
64939;DHT22;51453;47.738;7.420;2022-12-24T13:00:18;12.20;99.90
64939;DHT22;51453;47.738;7.420;2022-12-24T13:02:54;12.20;99.90
64939;DHT22;51453;47.738;7.420;2022-12-24T13:13:45;12.10;99.90
64939;DHT22;51453;47.738;7.420;2022-12-24T13:21:44;12.00;99.90
64939;DHT22;51453;47.738;7.420;2022-12-24T13:24:17;12.00;99.90
64939;DHT22;51453;47.738;7.420;2022-12-24T13:27:05;11.90;99.90
64939;DHT22;51453;47.738;7.420;2022-12-24T13:34:57;12.00;99.90
64939;DHT22;51453;47.738;7.420;2022-12-24T13:42:48;12.00;99.90
64939;DHT22;51453;47.738;7.420;2022-12-24T13:50:54;11.90;99.90
64939;DHT22;51453;47.738;7.420;2022-12-24T13:53:44;11.90;99.90
64939;DHT22;51453;47.738;7.420;2022-12-24T13:58:45;11.90;99.90
64939;DHT22;51453;47.738;7.420;2022-12-24T14:01:14;11.80;99.90
64939;DHT22;51453;47.738;7.420;2022-12-24T14:03:46;11.80;99.90
64939;DHT22;51453;47.738;7.420;2022-12-24T14:08:46;11.90;99.90
64939;DHT22;51453;47.738;7.420;2022-12-24T14:11:18;11.90;99.90
64939;DHT22;51453;47.738;7.420;2022-12-24T14:16:40;12.00;99.90
64939;DHT22;51453;47.738;7.420;2022-12-24T14:19:22;12.00;99.90
64939;DHT22;51453;47.738;7.420;2022-12-24T14:21:55;12.00;99.90
64939;DHT22;51453;47.738;7.420;2022-12-24T14:24:32;12.00;99.90
64939;DHT22;51453;47.738;7.420;2022-12-24T14:27:18;11.90;99.90
64939;DHT22;51453;47.738;7.420;2022-12-24T14:30:19;11.90;99.90
64939;DHT22;51453;47.738;7.420;2022-12-24T14:32:48;11.90;99.90
64939;DHT22;51453;47.738;7.420;2022-12-24T14:38:13;11.80;99.90
64939;DHT22;51453;47.738;7.420;2022-12-24T14:54:39;11.50;99.90
64939;DHT22;51453;47.738;7.420;2022-12-24T14:59:48;11.50;99.90
64939;DHT22;51453;47.738;7.420;2022-12-24T15:02:34;11.40;99.90
64939;DHT22;51453;47.738;7.420;2022-12-24T15:05:17;11.40;99.90
64939;DHT22;51453;47.738;7.420;2022-12-24T15:10:29;11.20;99.90
64939;DHT22;51453;47.738;7.420;2022-12-24T15:12:57;11.10;99.90
64939;DHT22;51453;47.738;7.420;2022-12-24T15:15:25;11.10;99.90
64939;DHT22;51453;47.738;7.420;2022-12-24T15:17:51;11.00;99.90
64939;DHT22;51453;47.738;7.420;2022-12-24T15:20:20;11.00;99.90
64939;DHT22;51453;47.738;7.420;2022-12-24T15:22:51;11.00;99.90
64939;DHT22;51453;47.738;7.420;2022-12-24T15:25:37;10.90;99.90
64939;DHT22;51453;47.738;7.420;2022-12-24T15:28:18;10.90;99.90
64939;DHT22;51453;47.738;7.420;2022-12-24T15:30:44;10.90;99.90
64939;DHT22;51453;47.738;7.420;2022-12-24T15:33:10;10.90;99.90
64939;DHT22;51453;47.738;7.420;2022-12-24T15:38:30;10.80;99.90
64939;DHT22;51453;47.738;7.420;2022-12-24T15:40:59;10.70;99.90
64939;DHT22;51453;47.738;7.420;2022-12-24T15:43:25;10.70;99.90
64939;DHT22;51453;47.738;7.420;2022-12-24T15:45:51;10.70;99.90
64939;DHT22;51453;47.738;7.420;2022-12-24T15:48:21;10.70;99.90
64939;DHT22;51453;47.738;7.420;2022-12-24T15:50:53;10.60;99.90
64939;DHT22;51453;47.738;7.420;2022-12-24T15:53:41;10.60;99.90
64939;DHT22;51453;47.738;7.420;2022-12-24T15:56:13;10.60;99.90
64939;DHT22;51453;47.738;7.420;2022-12-24T15:58:51;10.60;99.90
64939;DHT22;51453;47.738;7.420;2022-12-24T16:01:25;10.60;99.90
64939;DHT22;51453;47.738;7.420;2022-12-24T16:03:53;10.60;99.90
64939;DHT22;51453;47.738;7.420;2022-12-24T16:06:21;10.60;99.90
64939;DHT22;51453;47.738;7.420;2022-12-24T16:08:47;10.50;99.90
64939;DHT22;51453;47.738;7.420;2022-12-24T16:14:10;10.50;99.90
64939;DHT22;51453;47.738;7.420;2022-12-24T16:16:41;10.40;99.90
64939;DHT22;51453;47.738;7.420;2022-12-24T16:19:22;10.40;99.90
64939;DHT22;51453;47.738;7.420;2022-12-24T16:22:02;10.40;99.90
64939;DHT22;51453;47.738;7.420;2022-12-24T16:24:46;10.40;99.90
64939;DHT22;51453;47.738;7.420;2022-12-24T16:27:12;10.40;99.90
64939;DHT22;51453;47.738;7.420;2022-12-24T16:29:38;10.30;99.90
64939;DHT22;51453;47.738;7.420;2022-12-24T16:32:04;10.30;99.90
64939;DHT22;51453;47.738;7.420;2022-12-24T16:34:31;10.30;99.90
64939;DHT22;51453;47.738;7.420;2022-12-24T16:36:58;10.30;99.90
64939;DHT22;51453;47.738;7.420;2022-12-24T16:39:29;10.30;99.90
64939;DHT22;51453;47.738;7.420;2022-12-24T16:41:57;10.30;99.90
64939;DHT22;51453;47.738;7.420;2022-12-24T16:44:42;10.30;99.90
64939;DHT22;51453;47.738;7.420;2022-12-24T16:47:17;10.30;99.90
64939;DHT22;51453;47.738;7.420;2022-12-24T16:49:43;10.20;99.90
64939;DHT22;51453;47.738;7.420;2022-12-24T16:52:20;10.20;99.90
64939;DHT22;51453;47.738;7.420;2022-12-24T16:54:47;10.30;99.90
64939;DHT22;51453;47.738;7.420;2022-12-24T16:57:13;10.20;99.90
64939;DHT22;51453;47.738;7.420;2022-12-24T16:59:39;10.20;99.90
64939;DHT22;51453;47.738;7.420;2022-12-24T17:02:05;10.20;99.90
64939;DHT22;51453;47.738;7.420;2022-12-24T17:04:34;10.10;99.90
64939;DHT22;51453;47.738;7.420;2022-12-24T17:07:00;10.10;99.90
64939;DHT22;51453;47.738;7.420;2022-12-24T17:09:25;10.10;99.90
64939;DHT22;51453;47.738;7.420;2022-12-24T17:11:51;10.10;99.90
64939;DHT22;51453;47.738;7.420;2022-12-24T17:14:17;10.00;99.90
64939;DHT22;51453;47.738;7.420;2022-12-24T17:16:42;10.00;99.90
64939;DHT22;51453;47.738;7.420;2022-12-24T17:19:09;10.00;99.90
64939;DHT22;51453;47.738;7.420;2022-12-24T17:21:34;10.00;99.90
64939;DHT22;51453;47.738;7.420;2022-12-24T17:24:00;9.90;99.90
64939;DHT22;51453;47.738;7.420;2022-12-24T17:26:26;9.90;99.90
64939;DHT22;51453;47.738;7.420;2022-12-24T17:28:52;9.90;99.90
64939;DHT22;51453;47.738;7.420;2022-12-24T17:31:20;9.90;99.90
64939;DHT22;51453;47.738;7.420;2022-12-24T17:33:49;10.00;99.90
64939;DHT22;51453;47.738;7.420;2022-12-24T17:36:16;9.90;99.90
64939;DHT22;51453;47.738;7.420;2022-12-24T17:38:41;9.90;99.90
64939;DHT22;51453;47.738;7.420;2022-12-24T17:41:11;9.90;99.90
64939;DHT22;51453;47.738;7.420;2022-12-24T17:43:37;9.80;99.90
64939;DHT22;51453;47.738;7.420;2022-12-24T17:46:10;9.90;99.90
64939;DHT22;51453;47.738;7.420;2022-12-24T17:48:37;9.90;99.90
64939;DHT22;51453;47.738;7.420;2022-12-24T17:51:07;9.80;99.90
64939;DHT22;51453;47.738;7.420;2022-12-24T17:53:34;9.80;99.90
64939;DHT22;51453;47.738;7.420;2022-12-24T17:56:00;9.80;99.90
64939;DHT22;51453;47.738;7.420;2022-12-24T17:58:27;9.80;99.90
64939;DHT22;51453;47.738;7.420;2022-12-24T18:00:52;9.80;99.90
64939;DHT22;51453;47.738;7.420;2022-12-24T18:03:20;9.70;99.90
64939;DHT22;51453;47.738;7.420;2022-12-24T18:05:45;9.70;99.90
64939;DHT22;51453;47.738;7.420;2022-12-24T18:08:11;9.60;99.90
64939;DHT22;51453;47.738;7.420;2022-12-24T18:10:37;9.60;99.90
64939;DHT22;51453;47.738;7.420;2022-12-24T18:13:03;9.60;99.90